Página principal
METAR-TAF:

METAR-TAF

Aeroportos :

Djibouti, Djibouti

Aeroporto Internacional de Djibouti-Ambouli

latitude: 11-33N, longitude: 043-10E, altura: 49 m

METAR: em falta

Hora: 02:49 (23:49 UTC)

Previsão

O boletim foi feito há 2 horas e 49 minutos, às 21:00 UTC
Previsão válida de 19 às 00 UTC a 19 às 24 UTC
Vento 10 kt de oeste
Poucas nuvensa uma altura de 3000 ft, Cumulonimbus.
Probabilidade 40%
entre TS e /T UTC
Nuvens dispersasa uma altura de 2000 ft
Poucas nuvensa uma altura de 3000 ft, Cumulonimbus.

TAF: HDAM 182100Z 1900/1924 28010KT 8000HZ FEW030CB PROB40 TS/TSRA SCT020 FEW030CB

Observações e previsões do tempo de mais de 4000 aeroportos (mensagens METAR e TAF).

As estações disponíveis são os pontos amarelos e vermelhos sobre o mapa.

Mova o rato sobre o mapa para ver o nome da estação.

Depois clique no ponto para visualizar as observações e previsões meteorológicas.

Para alterar o mapa : clique nos botões verdes com uma cruz preta para aumentar o zoom; no botão verde com uma pitada de zoom; ou nas setas verdes para mapas adjacentes.


METAR-TAF: